createdAt,value
2023-04-10T00:02:45.490Z,90698.56
2023-04-10T00:05:48.991Z,90705.34
2023-04-10T00:08:52.754Z,90701.28
2023-04-10T00:11:57.071Z,90699.97
2023-04-10T00:15:00.180Z,90704.53
2023-04-10T00:18:03.403Z,90702.19
2023-04-10T00:21:06.840Z,90697.13
2023-04-10T00:24:10.256Z,90691.84
2023-04-10T00:27:13.977Z,90686.63
2023-04-10T00:30:18.030Z,90677.53
2023-04-10T00:33:22.139Z,90681.25
2023-04-10T00:36:25.671Z,90683.81
2023-04-10T00:39:29.363Z,90672.59
2023-04-10T00:42:33.846Z,90675.91
2023-04-10T00:45:40.688Z,90673.22
2023-04-10T00:48:44.431Z,90686.34
2023-04-10T00:51:48.565Z,90675.75
2023-04-10T00:54:53.255Z,90675.72
2023-04-10T00:57:57.607Z,90680.97
2023-04-10T01:01:00.966Z,90679.84
2023-04-10T01:04:04.855Z,90681.09
2023-04-10T01:07:29.546Z,90678.50
2023-04-10T01:10:39.696Z,90678.63
2023-04-10T01:13:56.128Z,90675.91
2023-04-10T01:17:08.570Z,90682.28
2023-04-10T01:20:17.117Z,90680.44
2023-04-10T01:23:59.622Z,90674.94
2023-04-10T01:27:41.708Z,90682.81
2023-04-10T01:30:47.357Z,90680.09
2023-04-10T01:33:56.787Z,90674.66
2023-04-10T01:37:03.819Z,90681.25
2023-04-10T01:40:11.843Z,90676.72
2023-04-10T01:43:16.997Z,90673.84
2023-04-10T01:46:27.827Z,90671.31
2023-04-10T01:49:33.608Z,90676.06
2023-04-10T01:52:40.131Z,90677.91
2023-04-10T01:56:04.187Z,90677.94
2023-04-10T01:59:14.952Z,90685.31
2023-04-10T02:02:19.461Z,90674.09
2023-04-10T02:05:24.463Z,90683.31
2023-04-10T02:08:35.648Z,90681.31
2023-04-10T02:11:50.123Z,90675.72
2023-04-10T02:14:56.735Z,90671.25
2023-04-10T02:18:02.212Z,90674.66
2023-04-10T02:21:07.945Z,90678.19
2023-04-10T02:24:11.705Z,90681.09
2023-04-10T02:27:16.950Z,90673.44
2023-04-10T02:30:21.218Z,90672.94
2023-04-10T02:33:24.257Z,90677.44
2023-04-10T02:36:28.378Z,90671.75
2023-04-10T02:39:32.320Z,90679.03
2023-04-10T02:42:36.768Z,90682.50
2023-04-10T02:45:40.547Z,90687.38
2023-04-10T02:48:46.540Z,90693.72
2023-04-10T02:51:50.300Z,90692.38
2023-04-10T02:54:53.402Z,90688.84
2023-04-10T02:57:57.075Z,90694.03
2023-04-10T03:01:01.691Z,90696.41
2023-04-10T03:04:25.625Z,90694.53
2023-04-10T03:07:29.799Z,90687.38
2023-04-10T03:10:33.269Z,90691.53
2023-04-10T03:13:36.342Z,90690.28
2023-04-10T03:16:39.591Z,90689.63
2023-04-10T03:19:43.339Z,90695.56
2023-04-10T03:22:46.975Z,90706.19
2023-04-10T03:25:54.275Z,90704.84
2023-04-10T03:29:01.319Z,90704.09
2023-04-10T03:32:04.681Z,90691.63
2023-04-10T03:35:09.388Z,90698.28
2023-04-10T03:38:13.279Z,90702.06
2023-04-10T03:41:16.265Z,90709.13
2023-04-10T03:44:20.470Z,90700.56
2023-04-10T03:47:23.491Z,90716.97
2023-04-10T03:50:29.603Z,90716.16
2023-04-10T03:53:36.736Z,90717.50
2023-04-10T03:56:45.934Z,90719.66
2023-04-10T03:59:49.510Z,90728.44
2023-04-10T04:02:55.127Z,90717.25
2023-04-10T04:06:24.247Z,90710.75
2023-04-10T04:10:00.248Z,90720.84
2023-04-10T04:13:16.434Z,90722.81
2023-04-10T04:16:28.522Z,90717.06
2023-04-10T04:19:45.311Z,90721.09
2023-04-10T04:23:08.442Z,90728.59
2023-04-10T04:26:29.893Z,90723.88
2023-04-10T04:30:08.865Z,90729.09
2023-04-10T04:33:23.645Z,90729.59
2023-04-10T04:36:53.631Z,90733.47
2023-04-10T04:40:22.909Z,90727.56
2023-04-10T04:43:39.485Z,90738.13
2023-04-10T04:46:54.929Z,90738.16
2023-04-10T04:50:18.160Z,90738.25
2023-04-10T04:53:36.125Z,90735.56
2023-04-10T04:56:49.695Z,90744.78
2023-04-10T05:00:08.208Z,90750.00
2023-04-10T05:03:35.516Z,90757.59
2023-04-10T05:06:58.909Z,90765.50
2023-04-10T05:10:32.623Z,90762.09
2023-04-10T05:14:08.270Z,90770.47
2023-04-10T05:17:32.316Z,90770.38
2023-04-10T05:20:51.390Z,90782.19
2023-04-10T05:24:22.120Z,90789.94
2023-04-10T05:27:45.956Z,90793.66
2023-04-10T05:31:22.423Z,90795.66
2023-04-10T05:34:31.662Z,90799.97
2023-04-10T05:37:59.907Z,90804.28
2023-04-10T05:41:18.469Z,90802.41
2023-04-10T05:44:40.963Z,90802.59
2023-04-10T05:48:06.728Z,90792.25
2023-04-10T05:51:32.915Z,90803.63
2023-04-10T05:55:14.424Z,90813.47
2023-04-10T05:58:17.502Z,90811.81
2023-04-10T06:01:41.705Z,90819.38
2023-04-10T06:04:45.664Z,90840.19
2023-04-10T06:07:50.101Z,90847.41
2023-04-10T06:10:53.290Z,90848.78
2023-04-10T06:13:56.504Z,90858.88
2023-04-10T06:17:07.522Z,90860.53
2023-04-10T06:20:11.042Z,90853.16
2023-04-10T06:23:15.363Z,90869.94
2023-04-10T06:26:19.286Z,90883.94
2023-04-10T06:29:22.405Z,90879.78
2023-04-10T06:32:25.515Z,90882.19
2023-04-10T06:35:29.394Z,90898.75
2023-04-10T06:38:34.638Z,90900.13
2023-04-10T06:41:38.293Z,90912.16
2023-04-10T06:44:50.569Z,90898.63
2023-04-10T06:47:54.607Z,90917.88
2023-04-10T06:50:58.182Z,90912.50
2023-04-10T06:54:01.909Z,90924.34
2023-04-10T06:57:05.296Z,90931.75
2023-04-10T07:00:09.977Z,90928.50
2023-04-10T07:03:13.840Z,90949.97
2023-04-10T07:06:17.807Z,90947.81
2023-04-10T07:09:21.577Z,90949.31
2023-04-10T07:12:24.953Z,90958.75
2023-04-10T07:15:29.252Z,90958.44
2023-04-10T07:18:32.182Z,90949.94
2023-04-10T07:21:36.342Z,90950.63
2023-04-10T07:24:39.368Z,90961.28
2023-04-10T07:27:42.922Z,90952.25
2023-04-10T07:30:46.729Z,90954.16
2023-04-10T07:33:50.642Z,90960.59
2023-04-10T07:36:53.754Z,90978.50
2023-04-10T07:39:57.362Z,90974.28
2023-04-10T07:43:00.301Z,90973.84
2023-04-10T07:46:04.914Z,90985.00
2023-04-10T07:49:08.912Z,90987.13
2023-04-10T07:52:12.547Z,90989.41
2023-04-10T07:55:16.097Z,90993.25
2023-04-10T07:58:20.419Z,91002.34
2023-04-10T08:01:23.639Z,91000.16
2023-04-10T08:04:27.561Z,91016.75
2023-04-10T08:07:31.888Z,91016.25
2023-04-10T08:10:38.209Z,91019.22
2023-04-10T08:13:41.880Z,91021.81
2023-04-10T08:16:45.033Z,91020.38
2023-04-10T08:19:48.513Z,91026.59
2023-04-10T08:22:52.839Z,91023.97
2023-04-10T08:25:55.791Z,91042.25
2023-04-10T08:29:01.261Z,91041.00
2023-04-10T08:32:04.380Z,91050.38
2023-04-10T08:35:08.649Z,91053.25
2023-04-10T08:38:14.189Z,91046.03
2023-04-10T08:41:20.320Z,91058.88
2023-04-10T08:44:23.358Z,91075.19
2023-04-10T08:47:29.945Z,91070.63
2023-04-10T08:50:36.705Z,91083.78
2023-04-10T08:53:43.797Z,91087.81
2023-04-10T08:56:54.397Z,91094.88
2023-04-10T09:00:04.198Z,91096.50
2023-04-10T09:03:16.713Z,91109.53
2023-04-10T09:06:19.981Z,91106.00
2023-04-10T09:09:22.976Z,91118.69
2023-04-10T09:12:26.163Z,91123.50
2023-04-10T09:15:29.896Z,91129.94
2023-04-10T09:18:49.972Z,91136.31
2023-04-10T09:21:53.109Z,91138.22
2023-04-10T09:24:56.280Z,91128.13
2023-04-10T09:28:10.246Z,91144.81
2023-04-10T09:31:33.869Z,91154.47
2023-04-10T09:34:54.325Z,91145.88
2023-04-10T09:37:57.378Z,91157.88
2023-04-10T09:41:10.250Z,91160.59
2023-04-10T09:44:14.402Z,91155.50
2023-04-10T09:47:22.013Z,91177.00
2023-04-10T09:50:39.248Z,91183.56
2023-04-10T09:53:53.547Z,91180.16
2023-04-10T09:56:58.702Z,91183.00
2023-04-10T10:00:13.040Z,91183.06
2023-04-10T10:03:19.045Z,91173.91
2023-04-10T10:06:22.983Z,91193.63
2023-04-10T10:09:29.188Z,91199.81
2023-04-10T10:12:37.673Z,91200.38
2023-04-10T10:15:53.117Z,91216.97
2023-04-10T10:19:27.790Z,91240.06
2023-04-10T10:22:33.039Z,91222.03
2023-04-10T10:25:36.909Z,91236.78
2023-04-10T10:28:42.100Z,91239.00
2023-04-10T10:31:48.448Z,91246.16
2023-04-10T10:34:54.443Z,91249.47
2023-04-10T10:38:01.184Z,91268.47
2023-04-10T10:41:22.340Z,91274.66
2023-04-10T10:44:36.036Z,91288.34
2023-04-10T10:47:58.466Z,91284.34
2023-04-10T10:51:04.011Z,91302.03
2023-04-10T10:54:42.428Z,91309.97
2023-04-10T10:57:56.912Z,91304.72
2023-04-10T11:01:00.223Z,91309.47
2023-04-10T11:04:45.178Z,91308.69
2023-04-10T11:08:01.144Z,91319.81
2023-04-10T11:11:09.364Z,91341.53
2023-04-10T11:14:18.318Z,91339.72
2023-04-10T11:17:51.977Z,91356.38
2023-04-10T11:21:16.168Z,91370.44
2023-04-10T11:24:19.794Z,91362.00
2023-04-10T11:27:59.315Z,91378.66
2023-04-10T11:31:20.195Z,91378.66
2023-04-10T11:34:23.976Z,91391.50
2023-04-10T11:37:27.681Z,91390.72
2023-04-10T11:40:32.400Z,91401.50
2023-04-10T11:43:36.452Z,91402.53
2023-04-10T11:46:42.717Z,91410.72
2023-04-10T11:49:56.452Z,91419.03
2023-04-10T11:53:00.582Z,91427.69
2023-04-10T11:56:05.105Z,91423.81
2023-04-10T11:59:15.340Z,91425.22
2023-04-10T12:02:18.858Z,91435.63
2023-04-10T12:05:23.037Z,91447.94
2023-04-10T12:08:33.483Z,91450.84
2023-04-10T12:11:37.598Z,91454.34
2023-04-10T12:14:43.410Z,91463.31
2023-04-10T12:17:47.771Z,91467.50
2023-04-10T12:20:55.905Z,91455.69
2023-04-10T12:23:59.706Z,91469.50
2023-04-10T12:27:03.363Z,91474.00
2023-04-10T12:30:09.660Z,91471.66
2023-04-10T12:33:13.703Z,91472.84
2023-04-10T12:36:24.812Z,91485.56
2023-04-10T12:39:28.522Z,91485.31
2023-04-10T12:42:41.988Z,91491.41
2023-04-10T12:45:46.361Z,91500.50
2023-04-10T12:48:50.461Z,91492.75
2023-04-10T12:51:54.344Z,91502.97
2023-04-10T12:55:12.816Z,91502.66
2023-04-10T12:58:23.429Z,91513.69
2023-04-10T13:01:27.654Z,91510.56
2023-04-10T13:04:32.875Z,91516.59
2023-04-10T13:07:40.047Z,91507.19
2023-04-10T13:10:44.185Z,91508.88
2023-04-10T13:13:49.135Z,91513.09
2023-04-10T13:16:52.100Z,91509.88
2023-04-10T13:19:55.907Z,91516.47
2023-04-10T13:22:59.966Z,91527.94
2023-04-10T13:26:03.496Z,91503.16
2023-04-10T13:29:07.432Z,91516.53
2023-04-10T13:32:11.512Z,91518.06
2023-04-10T13:35:15.112Z,91519.16
2023-04-10T13:38:19.921Z,91527.41
2023-04-10T13:41:25.357Z,91531.44
2023-04-10T13:44:29.050Z,91523.72
2023-04-10T13:47:33.065Z,91540.41
2023-04-10T13:50:36.214Z,91525.47
2023-04-10T13:53:39.984Z,91529.69
2023-04-10T13:56:45.028Z,91542.75
2023-04-10T13:59:49.123Z,91535.31
2023-04-10T14:02:52.288Z,91543.16
2023-04-10T14:05:55.753Z,91544.94
2023-04-10T14:08:59.020Z,91547.56
2023-04-10T14:12:02.658Z,91543.41
2023-04-10T14:15:06.483Z,91535.72
2023-04-10T14:18:09.957Z,91547.66
2023-04-10T14:21:13.012Z,91533.78
2023-04-10T14:24:16.073Z,91547.88
2023-04-10T14:27:19.188Z,91548.78
2023-04-10T14:30:22.613Z,91563.88
2023-04-10T14:33:26.464Z,91564.44
2023-04-10T14:36:30.240Z,91568.13
2023-04-10T14:39:36.001Z,91567.88
2023-04-10T14:42:39.047Z,91568.16
2023-04-10T14:45:42.434Z,91573.53
2023-04-10T14:48:46.468Z,91577.13
2023-04-10T14:51:50.859Z,91564.31
2023-04-10T14:54:54.632Z,91577.88
2023-04-10T14:57:58.827Z,91580.19
2023-04-10T15:01:03.148Z,91572.81
2023-04-10T15:04:07.049Z,91576.84
2023-04-10T15:07:10.388Z,91580.72
2023-04-10T15:10:13.363Z,91595.00
2023-04-10T15:13:16.662Z,91600.03
2023-04-10T15:16:20.669Z,91599.38
2023-04-10T15:19:24.579Z,91582.25
2023-04-10T15:22:27.880Z,91596.44
2023-04-10T15:25:33.968Z,91589.38
2023-04-10T15:28:37.558Z,91596.66
2023-04-10T15:31:41.068Z,91594.16
2023-04-10T15:34:45.816Z,91593.31
2023-04-10T15:37:49.563Z,91603.28
2023-04-10T15:40:52.931Z,91596.13
2023-04-10T15:43:56.615Z,91601.25
2023-04-10T15:47:00.599Z,91602.50
2023-04-10T15:50:05.708Z,91611.75
2023-04-10T15:53:09.932Z,91606.59
2023-04-10T15:56:16.873Z,91607.06
2023-04-10T15:59:20.278Z,91619.19
2023-04-10T16:02:24.732Z,91613.44
2023-04-10T16:05:28.628Z,91622.19
2023-04-10T16:08:32.561Z,91619.88
2023-04-10T16:11:36.354Z,91621.63
2023-04-10T16:14:40.135Z,91639.13
2023-04-10T16:17:43.840Z,91634.81
2023-04-10T16:20:47.973Z,91642.63
2023-04-10T16:23:51.668Z,91631.31
2023-04-10T16:26:55.733Z,91640.78
2023-04-10T16:29:59.522Z,91641.06
2023-04-10T16:33:04.943Z,91652.00
2023-04-10T16:36:08.628Z,91651.03
2023-04-10T16:39:12.096Z,91658.06
2023-04-10T16:42:15.812Z,91655.28
2023-04-10T16:45:19.535Z,91668.59
2023-04-10T16:48:23.550Z,91661.66
2023-04-10T16:51:26.692Z,91663.09
2023-04-10T16:54:30.121Z,91663.38
2023-04-10T16:57:34.121Z,91667.28
2023-04-10T17:00:38.222Z,91670.75
2023-04-10T17:03:41.685Z,91669.59
2023-04-10T17:06:45.153Z,91666.41
2023-04-10T17:09:49.237Z,91668.31
2023-04-10T17:12:53.021Z,91676.16
2023-04-10T17:15:57.010Z,91675.97
2023-04-10T17:19:00.027Z,91676.66
2023-04-10T17:22:03.308Z,91674.63
2023-04-10T17:25:07.780Z,91676.19
2023-04-10T17:28:11.806Z,91676.38
2023-04-10T17:31:16.041Z,91675.88
2023-04-10T17:34:19.833Z,91671.91
2023-04-10T17:37:23.636Z,91682.44
2023-04-10T17:40:26.862Z,91685.34
2023-04-10T17:43:30.875Z,91685.91
2023-04-10T17:46:34.552Z,91684.75
2023-04-10T17:49:40.316Z,91699.38
2023-04-10T17:52:45.077Z,91685.44
2023-04-10T17:55:49.220Z,91684.69
2023-04-10T17:58:54.820Z,91701.59
2023-04-10T18:01:58.476Z,91693.19
2023-04-10T18:05:04.027Z,91691.34
2023-04-10T18:08:09.492Z,91687.47
2023-04-10T18:11:13.759Z,91693.38
2023-04-10T18:14:18.206Z,91692.88
2023-04-10T18:17:22.245Z,91694.78
2023-04-10T18:20:26.462Z,91682.91
2023-04-10T18:23:31.470Z,91700.78
2023-04-10T18:26:35.794Z,91688.72
2023-04-10T18:29:39.676Z,91687.06
2023-04-10T18:32:43.700Z,91690.66
2023-04-10T18:35:47.257Z,91703.50
2023-04-10T18:38:51.437Z,91706.31
2023-04-10T18:41:54.629Z,91693.53
2023-04-10T18:44:57.576Z,91691.16
2023-04-10T18:48:01.937Z,91703.13
2023-04-10T18:51:05.929Z,91689.22
2023-04-10T18:54:09.840Z,91702.53
2023-04-10T18:57:14.496Z,91693.53
2023-04-10T19:00:18.304Z,91707.41
2023-04-10T19:03:22.642Z,91705.47
2023-04-10T19:06:28.791Z,91703.63
2023-04-10T19:09:32.479Z,91714.06
2023-04-10T19:12:40.349Z,91716.16
2023-04-10T19:15:46.827Z,91703.66
2023-04-10T19:18:50.735Z,91710.22
2023-04-10T19:21:54.386Z,91722.72
2023-04-10T19:24:58.779Z,91715.09
2023-04-10T19:28:02.545Z,91714.09
2023-04-10T19:31:06.783Z,91718.81
2023-04-10T19:34:12.996Z,91703.66
2023-04-10T19:37:16.293Z,91710.53
2023-04-10T19:40:20.196Z,91705.41
2023-04-10T19:43:23.115Z,91704.50
2023-04-10T19:46:26.323Z,91712.63
2023-04-10T19:49:33.359Z,91723.84
2023-04-10T19:52:36.410Z,91726.00
2023-04-10T19:55:41.368Z,91726.44
2023-04-10T19:58:55.911Z,91720.13
2023-04-10T20:01:59.286Z,91733.59
2023-04-10T20:05:03.449Z,91739.47
2023-04-10T20:08:07.156Z,91736.28
2023-04-10T20:11:10.211Z,91741.84
2023-04-10T20:14:14.311Z,91753.34
2023-04-10T20:17:17.661Z,91754.78
2023-04-10T20:20:21.035Z,91746.28
2023-04-10T20:23:24.365Z,91749.66
2023-04-10T20:26:27.764Z,91740.75
2023-04-10T20:29:31.551Z,91747.88
2023-04-10T20:32:35.897Z,91753.34
2023-04-10T20:35:39.217Z,91747.88
2023-04-10T20:38:43.457Z,91753.44
2023-04-10T20:41:46.992Z,91753.25
2023-04-10T20:44:50.908Z,91760.28
2023-04-10T20:47:54.706Z,91751.59
2023-04-10T20:50:58.444Z,91761.44
2023-04-10T20:54:02.279Z,91765.63
2023-04-10T20:57:06.935Z,91773.13
2023-04-10T21:00:11.281Z,91768.16
2023-04-10T21:03:15.590Z,91777.91
2023-04-10T21:06:19.394Z,91775.50
2023-04-10T21:09:23.063Z,91780.25
2023-04-10T21:12:26.808Z,91785.34
2023-04-10T21:15:30.803Z,91784.94
2023-04-10T21:18:34.504Z,91793.53
2023-04-10T21:21:37.707Z,91791.81
2023-04-10T21:24:40.898Z,91798.38
2023-04-10T21:27:43.949Z,91800.31
2023-04-10T21:30:47.545Z,91807.44
2023-04-10T21:33:50.672Z,91808.50
2023-04-10T21:36:55.301Z,91812.66
2023-04-10T21:39:58.418Z,91808.59
2023-04-10T21:43:03.043Z,91819.94
2023-04-10T21:46:07.275Z,91820.13
2023-04-10T21:49:11.323Z,91817.41
2023-04-10T21:52:14.368Z,91817.31
2023-04-10T21:55:18.980Z,91830.34
2023-04-10T21:58:22.001Z,91834.31
2023-04-10T22:01:25.648Z,91840.50
2023-04-10T22:04:28.717Z,91846.53
2023-04-10T22:07:32.072Z,91855.31
2023-04-10T22:10:36.318Z,91856.38
2023-04-10T22:13:40.037Z,91855.72
2023-04-10T22:16:43.233Z,91860.75
2023-04-10T22:19:47.682Z,91864.81
2023-04-10T22:22:51.327Z,91874.25
2023-04-10T22:25:55.034Z,91874.50
2023-04-10T22:28:59.673Z,91878.69
2023-04-10T22:32:03.091Z,91882.38
2023-04-10T22:35:07.581Z,91880.81
2023-04-10T22:38:10.941Z,91902.47
2023-04-10T22:41:14.775Z,91904.22
2023-04-10T22:44:18.426Z,91894.84
2023-04-10T22:47:22.233Z,91897.03
2023-04-10T22:50:25.594Z,91907.41
2023-04-10T22:53:29.382Z,91935.44
2023-04-10T22:56:32.483Z,91919.06
2023-04-10T22:59:39.258Z,91924.50
2023-04-10T23:02:42.584Z,91935.81
2023-04-10T23:05:47.591Z,91923.03
2023-04-10T23:08:54.712Z,91938.78
2023-04-10T23:11:58.572Z,91940.66
2023-04-10T23:15:02.057Z,91948.56
2023-04-10T23:18:06.096Z,91950.78
2023-04-10T23:21:10.328Z,91964.47
2023-04-10T23:24:13.499Z,91966.41
2023-04-10T23:27:17.551Z,91973.19
2023-04-10T23:30:21.416Z,91979.03
2023-04-10T23:33:25.597Z,91977.66
2023-04-10T23:36:28.588Z,91979.56
2023-04-10T23:39:32.656Z,91998.09
2023-04-10T23:42:35.855Z,91990.53
2023-04-10T23:45:39.127Z,91987.75
2023-04-10T23:48:43.219Z,91991.84
2023-04-10T23:51:46.768Z,92001.72
2023-04-10T23:54:50.250Z,92009.78
2023-04-10T23:57:53.304Z,92012.94
